createdAt,value
2018-09-26T00:00:32.251Z,-62.0786
2018-09-26T00:01:37.168Z,-60.6729
2018-09-26T00:02:42.065Z,-60.8368
2018-09-26T00:03:47.563Z,-60.6729
2018-09-26T00:04:52.992Z,-60.6729
2018-09-26T00:05:58.179Z,-61.5872
2018-09-26T00:07:03.452Z,-60.4246
2018-09-26T00:08:08.880Z,-60.4246
2018-09-26T00:09:14.149Z,-61.0851
2018-09-26T00:10:19.539Z,-61.0851
2018-09-26T00:11:24.690Z,-60.8368
2018-09-26T00:12:30.345Z,-60.1762
2018-09-26T00:13:35.489Z,-60.1762
2018-09-26T00:14:40.990Z,-61.3388
2018-09-26T00:15:46.470Z,-60.4246
2018-09-26T00:16:51.345Z,-61.5872
2018-09-26T00:17:55.655Z,-61.3388
2018-09-26T00:19:01.358Z,-60.5937
2018-09-26T00:20:06.518Z,-60.3453
2018-09-26T00:21:11.958Z,-61.0851
2018-09-26T00:22:17.559Z,-60.5937
2018-09-26T00:23:21.921Z,-60.1762
2018-09-26T00:24:42.136Z,-61.3388
2018-09-26T00:25:47.569Z,-60.8368
2018-09-26T00:26:52.997Z,-60.5937
2018-09-26T00:27:58.806Z,-60.5937
2018-09-26T00:29:04.009Z,-61.0851
2018-09-26T00:30:09.165Z,-61.0851
2018-09-26T00:31:14.462Z,-60.8368
2018-09-26T00:32:19.907Z,-61.0851
2018-09-26T00:33:24.802Z,-60.5937
2018-09-26T00:34:30.726Z,-60.3453
2018-09-26T00:35:35.629Z,-59.6794
2018-09-26T00:36:41.040Z,-60.3453
2018-09-26T00:37:46.793Z,-60.3453
2018-09-26T00:38:52.256Z,-60.0916
2018-09-26T00:39:57.693Z,-60.3453
2018-09-26T00:41:02.914Z,-59.4363
2018-09-26T00:42:08.403Z,-59.4363
2018-09-26T00:43:13.924Z,-59.1827
2018-09-26T00:44:19.121Z,-59.1827
2018-09-26T00:45:24.572Z,-58.9343
2018-09-26T00:46:44.909Z,-58.6859
2018-09-26T00:47:50.063Z,-58.4428
2018-09-26T00:48:55.324Z,-59.1827
2018-09-26T00:50:00.779Z,-58.1892
2018-09-26T00:51:06.311Z,-58.4428
2018-09-26T00:52:11.456Z,-57.4493
2018-09-26T00:53:16.637Z,-57.6924
2018-09-26T00:54:21.784Z,-57.1956
2018-09-26T00:55:41.851Z,-57.6924
2018-09-26T00:56:47.298Z,-57.9408
2018-09-26T00:57:52.694Z,-57.2802
2018-09-26T00:58:57.857Z,-57.2802
2018-09-26T01:00:02.729Z,-57.0318
2018-09-26T01:01:07.572Z,-57.2802
2018-09-26T01:02:12.476Z,-57.1956
2018-09-26T01:03:17.950Z,-56.6196
2018-09-26T01:04:23.679Z,-56.6196
2018-09-26T01:05:28.879Z,-55.6261
2018-09-26T01:06:34.790Z,-56.6196
2018-09-26T01:07:40.235Z,-57.1956
2018-09-26T01:08:45.387Z,-55.8745
2018-09-26T01:09:51.167Z,-56.6196
2018-09-26T01:10:56.740Z,-56.1229
2018-09-26T01:12:02.165Z,-55.6261
2018-09-26T01:13:07.406Z,-55.6261
2018-09-26T01:14:12.302Z,-55.8745
2018-09-26T01:15:17.819Z,-55.6261
2018-09-26T01:16:23.263Z,-56.1229
2018-09-26T01:17:28.760Z,-55.6261
2018-09-26T01:18:34.588Z,-56.1229
2018-09-26T01:19:39.893Z,-55.8745
2018-09-26T01:20:45.154Z,-55.6261
2018-09-26T01:21:50.646Z,-55.6261
2018-09-26T01:22:56.129Z,-55.6261
2018-09-26T01:24:01.077Z,-54.3842
2018-09-26T01:25:06.793Z,-54.6326
2018-09-26T01:26:11.759Z,-54.3842
2018-09-26T01:27:16.712Z,-55.6261
2018-09-26T01:28:22.399Z,-55.6261
2018-09-26T01:29:27.096Z,-55.3777
2018-09-26T01:30:33.139Z,-55.6261
2018-09-26T01:31:38.818Z,-55.1293
2018-09-26T01:32:44.275Z,-55.6261
2018-09-26T01:33:49.524Z,-54.881
2018-09-26T01:34:54.664Z,-53.9667
2018-09-26T01:35:59.590Z,-53.47
2018-09-26T01:37:05.549Z,-53.7183
2018-09-26T01:38:10.992Z,-53.7183
2018-09-26T01:39:16.487Z,-54.2204
2018-09-26T01:40:22.188Z,-55.3777
2018-09-26T01:41:27.586Z,-55.3777
2018-09-26T01:42:33.195Z,-54.3842
2018-09-26T01:43:38.344Z,-53.47
2018-09-26T01:44:42.754Z,-52.4765
2018-09-26T01:45:48.169Z,-52.7248
2018-09-26T01:46:53.030Z,-53.2269
2018-09-26T01:47:57.927Z,-53.2269
2018-09-26T01:49:03.040Z,-53.2269
2018-09-26T01:50:08.276Z,-52.9732
2018-09-26T01:51:13.707Z,-53.47
2018-09-26T01:52:19.144Z,-53.9667
2018-09-26T01:53:24.298Z,-54.3842
2018-09-26T01:54:29.899Z,-53.47
2018-09-26T01:55:35.043Z,-52.9732
2018-09-26T01:56:40.184Z,-52.4765
2018-09-26T01:57:46.176Z,-52.7248
2018-09-26T01:58:51.675Z,-52.2281
2018-09-26T01:59:56.298Z,-52.7248
2018-09-26T02:01:01.704Z,-53.2269
2018-09-26T02:02:06.381Z,-52.2281
2018-09-26T02:03:11.846Z,-52.4765
2018-09-26T02:04:17.250Z,-52.7248
2018-09-26T02:05:22.719Z,-52.4765
2018-09-26T02:06:28.334Z,-51.7313
2018-09-26T02:07:33.193Z,-52.7248
2018-09-26T02:08:38.699Z,-52.7248
2018-09-26T02:09:44.403Z,-51.9797
2018-09-26T02:10:49.264Z,-52.4765
2018-09-26T02:11:54.443Z,-51.9797
2018-09-26T02:12:59.300Z,-52.9732
2018-09-26T02:14:03.878Z,-51.7313
2018-09-26T02:15:09.324Z,-52.7248
2018-09-26T02:16:15.268Z,-52.2281
2018-09-26T02:17:20.730Z,-51.9797
2018-09-26T02:18:41.529Z,-51.7313
2018-09-26T02:19:47.059Z,-51.9797
2018-09-26T02:20:52.493Z,-51.7313
2018-09-26T02:21:58.394Z,-52.4765
2018-09-26T02:23:03.286Z,-53.2269
2018-09-26T02:24:08.440Z,-51.9797
2018-09-26T02:25:13.634Z,-51.7313
2018-09-26T02:26:18.531Z,-52.2281
2018-09-26T02:27:23.994Z,-51.7313
2018-09-26T02:28:29.584Z,-51.5675
2018-09-26T02:29:34.456Z,-50.8224
2018-09-26T02:30:40.324Z,-51.0707
2018-09-26T02:31:45.751Z,-50.3256
2018-09-26T02:32:51.188Z,-51.0707
2018-09-26T02:33:56.735Z,-50.8224
2018-09-26T02:35:02.194Z,-51.4829
2018-09-26T02:36:07.205Z,-51.7313
2018-09-26T02:37:12.718Z,-51.7313
2018-09-26T02:38:17.884Z,-52.4765
2018-09-26T02:39:23.098Z,-52.2281
2018-09-26T02:40:28.508Z,-51.7313
2018-09-26T02:41:33.684Z,-51.3191
2018-09-26T02:42:39.513Z,-51.7313
2018-09-26T02:43:45.042Z,-51.3191
2018-09-26T02:44:50.473Z,-51.7313
2018-09-26T02:45:56.303Z,-51.3191
2018-09-26T02:47:01.297Z,-51.7313
2018-09-26T02:48:06.166Z,-51.4829
2018-09-26T02:49:11.708Z,-50.3256
2018-09-26T02:50:17.181Z,-51.3191
2018-09-26T02:51:22.065Z,-51.3191
2018-09-26T02:52:27.640Z,-50.574
2018-09-26T02:53:32.815Z,-51.3191
2018-09-26T02:54:38.441Z,-51.7313
2018-09-26T02:55:44.154Z,-52.7248
2018-09-26T02:56:49.418Z,-52.7248
2018-09-26T02:57:54.541Z,-52.2281
2018-09-26T02:58:59.430Z,-51.9797
2018-09-26T03:00:03.766Z,-51.7313
2018-09-26T03:01:09.516Z,-51.3191
2018-09-26T03:02:14.942Z,-51.7313
2018-09-26T03:03:20.087Z,-52.9732
2018-09-26T03:04:25.657Z,-52.2281
2018-09-26T03:05:31.325Z,-51.4829
2018-09-26T03:06:37.038Z,-51.3191
2018-09-26T03:07:42.489Z,-51.0707
2018-09-26T03:08:47.992Z,-50.3256
2018-09-26T03:09:53.401Z,-50.574
2018-09-26T03:10:59.070Z,-49.8289
2018-09-26T03:12:04.779Z,-50.0772
2018-09-26T03:13:10.638Z,-50.3256
2018-09-26T03:14:15.508Z,-50.3256
2018-09-26T03:15:20.990Z,-50.8224
2018-09-26T03:16:26.183Z,-50.3256
2018-09-26T03:17:31.810Z,-49.8289
2018-09-26T03:18:37.881Z,-49.5752
2018-09-26T03:19:43.316Z,-50.574
2018-09-26T03:20:48.487Z,-51.2346
2018-09-26T03:21:54.334Z,-50.9862
2018-09-26T03:22:59.850Z,-50.8224
2018-09-26T03:24:04.710Z,-50.8224
2018-09-26T03:25:10.699Z,-51.9797
2018-09-26T03:26:15.919Z,-51.7313
2018-09-26T03:27:21.069Z,-51.9797
2018-09-26T03:28:26.635Z,-51.4829
2018-09-26T03:29:31.787Z,-51.7313
2018-09-26T03:30:36.930Z,-51.7313
2018-09-26T03:31:42.177Z,-51.2346
2018-09-26T03:32:47.443Z,-51.7313
2018-09-26T03:33:53.726Z,-51.9797
2018-09-26T03:34:58.598Z,-50.7378
2018-09-26T03:36:03.804Z,-50.9862
2018-09-26T03:37:09.232Z,-51.2346
2018-09-26T03:38:14.746Z,-51.9797
2018-09-26T03:39:20.233Z,-51.9797
2018-09-26T03:40:25.978Z,-50.9862
2018-09-26T03:41:31.339Z,-50.9862
2018-09-26T03:42:37.137Z,-51.4829
2018-09-26T03:43:42.538Z,-52.4765
2018-09-26T03:44:47.482Z,-51.4829
2018-09-26T03:45:52.694Z,-50.9862
2018-09-26T03:46:57.833Z,-50.9862
2018-09-26T03:48:03.243Z,-50.4894
2018-09-26T03:49:08.946Z,-49.3321
2018-09-26T03:50:13.542Z,-48.8353
2018-09-26T03:51:18.693Z,-49.3321
2018-09-26T03:52:24.096Z,-49.0837
2018-09-26T03:53:29.306Z,-48.587
2018-09-26T03:54:34.933Z,-49.0837
2018-09-26T03:55:40.090Z,-49.5752
2018-09-26T03:56:45.333Z,-49.5752
2018-09-26T03:57:51.291Z,-49.8289
2018-09-26T03:58:56.723Z,-49.3321
2018-09-26T04:00:01.612Z,-49.3321
2018-09-26T04:01:07.257Z,-49.0837
2018-09-26T04:02:12.118Z,-48.587
2018-09-26T04:03:17.272Z,-48.8353
2018-09-26T04:04:22.992Z,-49.0837
2018-09-26T04:05:28.690Z,-48.0849
2018-09-26T04:06:33.923Z,-46.6792
2018-09-26T04:07:38.851Z,-46.9276
2018-09-26T04:08:44.278Z,-46.843
2018-09-26T04:09:48.826Z,-47.0914
2018-09-26T04:10:54.008Z,-46.1825
2018-09-26T04:11:59.158Z,-47.0914
2018-09-26T04:13:05.000Z,-47.3451
2018-09-26T04:14:10.279Z,-47.0914
2018-09-26T04:15:15.169Z,-46.843
2018-09-26T04:16:20.854Z,-46.3463
2018-09-26T04:17:26.288Z,-46.843
2018-09-26T04:18:31.729Z,-46.3463
2018-09-26T04:19:36.881Z,-46.0979
2018-09-26T04:20:41.475Z,-45.8495
2018-09-26T04:21:47.366Z,-46.3463
2018-09-26T04:22:52.241Z,-46.0979
2018-09-26T04:23:57.106Z,-46.3463
2018-09-26T04:25:01.938Z,-46.5947
2018-09-26T04:26:07.498Z,-46.0979
2018-09-26T04:27:13.480Z,-46.0979
2018-09-26T04:28:19.817Z,-45.6011
2018-09-26T04:29:25.246Z,-46.267
2018-09-26T04:30:30.690Z,-46.267
2018-09-26T04:31:36.610Z,-46.267
2018-09-26T04:32:42.533Z,-46.5154
2018-09-26T04:33:49.013Z,-45.5166
2018-09-26T04:34:54.301Z,-46.0186
2018-09-26T04:35:58.894Z,-46.0186
2018-09-26T04:37:04.354Z,-46.267
2018-09-26T04:38:09.508Z,-46.0186
2018-09-26T04:39:14.465Z,-45.765
2018-09-26T04:40:20.354Z,-45.765
2018-09-26T04:41:25.240Z,-46.0186
2018-09-26T04:42:30.989Z,-45.5166
2018-09-26T04:43:36.128Z,-44.856
2018-09-26T04:44:41.612Z,-44.6076
2018-09-26T04:45:47.130Z,-45.5166
2018-09-26T04:46:52.583Z,-43.8625
2018-09-26T04:47:58.039Z,-43.8625
2018-09-26T04:49:03.233Z,-43.6141
2018-09-26T04:50:08.670Z,-43.8625
2018-09-26T04:51:13.811Z,-44.3593
2018-09-26T04:52:19.252Z,-44.6076
2018-09-26T04:53:24.392Z,-44.6076
2018-09-26T04:54:30.048Z,-45.6857
2018-09-26T04:55:35.266Z,-46.1825
2018-09-26T04:56:40.429Z,-44.7715
2018-09-26T04:57:46.309Z,-46.1825
2018-09-26T04:58:51.350Z,-44.7715
2018-09-26T04:59:56.502Z,-44.7715
2018-09-26T05:01:01.452Z,-44.7715
2018-09-26T05:02:06.040Z,-44.5231
2018-09-26T05:03:11.196Z,-43.8625
2018-09-26T05:04:16.605Z,-44.2747
2018-09-26T05:05:22.157Z,-44.7715
2018-09-26T05:06:27.707Z,-44.5231
2018-09-26T05:07:32.950Z,-44.0263
2018-09-26T05:08:37.957Z,-44.2747
2018-09-26T05:09:43.466Z,-44.2747
2018-09-26T05:10:48.644Z,-45.9288
2018-09-26T05:11:53.648Z,-44.2747
2018-09-26T05:12:59.148Z,-45.6857
2018-09-26T05:14:03.874Z,-44.7715
2018-09-26T05:15:09.311Z,-43.7779
2018-09-26T05:16:14.997Z,-43.5296
2018-09-26T05:17:20.213Z,-44.2747
2018-09-26T05:18:40.370Z,-43.5296
2018-09-26T05:19:45.646Z,-44.5231
2018-09-26T05:20:51.132Z,-44.7715
2018-09-26T05:21:56.682Z,-44.5231
2018-09-26T05:23:01.697Z,-44.0263
2018-09-26T05:24:06.671Z,-46.0979
2018-09-26T05:25:12.240Z,-45.3528
2018-09-26T05:26:17.429Z,-46.0979
2018-09-26T05:27:22.978Z,-45.3528
2018-09-26T05:28:42.740Z,-46.0979
2018-09-26T05:29:47.997Z,-45.6011
2018-09-26T05:30:53.459Z,-45.3528
2018-09-26T05:31:58.609Z,-45.1889
2018-09-26T05:33:03.250Z,-45.6011
2018-09-26T05:34:08.684Z,-44.6922
2018-09-26T05:35:13.909Z,-45.8495
2018-09-26T05:36:18.841Z,-45.8495
2018-09-26T05:37:24.278Z,-45.8495
2018-09-26T05:38:29.301Z,-45.3528
2018-09-26T05:39:34.779Z,-46.3463
2018-09-26T05:40:39.645Z,-46.5947
2018-09-26T05:41:45.195Z,-46.0979
2018-09-26T05:42:50.938Z,-46.0979
2018-09-26T05:43:55.795Z,-47.2605
2018-09-26T05:45:00.999Z,-46.0979
2018-09-26T05:46:06.427Z,-46.0979
2018-09-26T05:47:11.863Z,-46.0979
2018-09-26T05:48:17.365Z,-46.267
2018-09-26T05:49:22.838Z,-46.267
2018-09-26T05:50:28.264Z,-47.0121
2018-09-26T05:51:34.098Z,-46.7585
2018-09-26T05:52:39.575Z,-46.267
2018-09-26T05:53:44.714Z,-45.6011
2018-09-26T05:54:49.872Z,-46.7585
2018-09-26T05:55:55.315Z,-46.7585
2018-09-26T05:57:00.748Z,-46.5154
2018-09-26T05:58:05.884Z,-46.5154
2018-09-26T05:59:11.232Z,-45.765
2018-09-26T06:00:16.795Z,-46.5154
2018-09-26T06:01:22.628Z,-45.765
2018-09-26T06:02:27.855Z,-46.267
2018-09-26T06:03:33.622Z,-45.765
2018-09-26T06:04:38.819Z,-46.5154
2018-09-26T06:05:43.788Z,-46.267
2018-09-26T06:06:48.944Z,-46.0186
2018-09-26T06:07:54.448Z,-45.765
2018-09-26T06:08:59.687Z,-45.5166
2018-09-26T06:10:04.815Z,-45.2682
2018-09-26T06:11:09.995Z,-45.765
2018-09-26T06:12:14.568Z,-44.1901
2018-09-26T06:13:19.709Z,-43.9418
2018-09-26T06:14:25.094Z,-44.856
2018-09-26T06:15:30.644Z,-44.856
2018-09-26T06:16:35.791Z,-45.5166
2018-09-26T06:17:41.031Z,-43.6934
2018-09-26T06:18:46.762Z,-43.1966
2018-09-26T06:19:51.647Z,-43.9418
2018-09-26T06:20:56.505Z,-43.6934
2018-09-26T06:22:01.696Z,-43.9418
2018-09-26T06:23:06.879Z,-44.4385
2018-09-26T06:24:12.339Z,-44.6076
2018-09-26T06:25:18.458Z,-44.1901
2018-09-26T06:26:23.859Z,-44.1901
2018-09-26T06:27:29.678Z,-44.6076
2018-09-26T06:28:34.879Z,-44.3593
2018-09-26T06:29:40.306Z,-43.9418
2018-09-26T06:30:45.734Z,-44.1901
2018-09-26T06:31:50.598Z,-43.6934
2018-09-26T06:32:55.759Z,-43.6934
2018-09-26T06:34:01.251Z,-44.1901
2018-09-26T06:35:06.969Z,-44.6076
2018-09-26T06:36:12.314Z,-43.445
2018-09-26T06:37:18.140Z,-43.9418
2018-09-26T06:38:23.333Z,-43.1966
2018-09-26T06:39:28.491Z,-43.6934
2018-09-26T06:40:33.948Z,-43.1966
2018-09-26T06:41:38.666Z,-43.1966
2018-09-26T06:42:44.099Z,-42.6999
2018-09-26T06:43:49.607Z,-42.4515
2018-09-26T06:44:54.745Z,-41.9547
2018-09-26T06:46:00.425Z,-41.5373
2018-09-26T06:47:05.768Z,-42.2031
2018-09-26T06:48:10.941Z,-42.0393
2018-09-26T06:49:16.086Z,-42.2031
2018-09-26T06:50:21.403Z,-41.7856
2018-09-26T06:51:41.336Z,-42.2031
2018-09-26T06:52:46.792Z,-42.4515
2018-09-26T06:53:52.144Z,-42.2031
2018-09-26T06:54:57.897Z,-42.2031
2018-09-26T06:56:02.749Z,-43.1966
2018-09-26T06:57:08.340Z,-42.9483
2018-09-26T06:58:13.764Z,-42.2031
2018-09-26T06:59:18.919Z,-42.0393
2018-09-26T07:00:24.168Z,-42.6999
2018-09-26T07:01:29.900Z,-41.5373
2018-09-26T07:02:34.883Z,-41.5373
2018-09-26T07:03:40.386Z,-42.0393
2018-09-26T07:04:45.536Z,-42.0393
2018-09-26T07:05:50.929Z,-41.7856
2018-09-26T07:06:56.198Z,-42.0393
2018-09-26T07:08:01.049Z,-41.1251
2018-09-26T07:09:06.207Z,-40.6283
2018-09-26T07:10:11.889Z,-41.5373
2018-09-26T07:11:17.334Z,-42.2877
2018-09-26T07:12:22.537Z,-42.2877
2018-09-26T07:13:28.695Z,-42.6999
2018-09-26T07:14:34.148Z,-42.9483
2018-09-26T07:15:39.903Z,-42.0393
2018-09-26T07:16:44.839Z,-42.5361
2018-09-26T07:17:50.001Z,-41.7856
2018-09-26T07:18:55.395Z,-43.1966
2018-09-26T07:20:00.872Z,-42.2877
2018-09-26T07:21:05.804Z,-42.2877
2018-09-26T07:22:12.409Z,-43.2812
2018-09-26T07:23:17.568Z,-42.7844
2018-09-26T07:24:22.990Z,-42.5361
2018-09-26T07:25:28.931Z,-42.0393
2018-09-26T07:26:34.378Z,-42.5361
2018-09-26T07:27:40.318Z,-41.8702
2018-09-26T07:28:45.173Z,-42.3669
2018-09-26T07:29:50.611Z,-42.1186
2018-09-26T07:30:56.120Z,-41.8702
2018-09-26T07:32:01.464Z,-42.6153
2018-09-26T07:33:06.984Z,-42.6153
2018-09-26T07:34:12.481Z,-42.1186
2018-09-26T07:35:17.347Z,-42.1186
2018-09-26T07:36:22.789Z,-42.1186
2018-09-26T07:37:42.571Z,-42.3669
2018-09-26T07:38:47.758Z,-42.1186
2018-09-26T07:39:53.201Z,-41.8702
2018-09-26T07:40:58.851Z,-42.6153
2018-09-26T07:42:03.709Z,-42.8637
2018-09-26T07:43:08.863Z,-42.3669
2018-09-26T07:44:14.335Z,-42.1186
2018-09-26T07:45:19.666Z,-41.7064
2018-09-26T07:46:25.638Z,-41.7064
2018-09-26T07:47:30.790Z,-41.7064
2018-09-26T07:48:35.991Z,-41.7064
2018-09-26T07:49:41.151Z,-42.4515
2018-09-26T07:50:46.368Z,-41.9547
2018-09-26T07:51:52.119Z,-41.7064
2018-09-26T07:52:57.414Z,-41.2889
2018-09-26T07:54:02.052Z,-40.5437
2018-09-26T07:55:07.841Z,-41.0405
2018-09-26T07:56:12.996Z,-41.2889
2018-09-26T07:57:18.485Z,-40.8767
2018-09-26T07:58:24.176Z,-40.1315
2018-09-26T07:59:29.638Z,-41.0405
2018-09-26T08:00:35.684Z,-40.1315
2018-09-26T08:01:41.223Z,-40.3799
2018-09-26T08:02:46.419Z,-40.1315
2018-09-26T08:03:50.980Z,-41.458
2018-09-26T08:04:55.567Z,-41.458
2018-09-26T08:06:00.937Z,-41.3734
2018-09-26T08:07:07.009Z,-40.6283
2018-09-26T08:08:11.981Z,-40.8767
2018-09-26T08:09:17.139Z,-41.5373
2018-09-26T08:10:22.826Z,-41.5373
2018-09-26T08:11:29.217Z,-42.9483
2018-09-26T08:12:35.114Z,-42.9483
2018-09-26T08:13:40.323Z,-42.4515
2018-09-26T08:14:45.764Z,-43.1966
2018-09-26T08:15:51.215Z,-43.445
2018-09-26T08:16:56.349Z,-43.6934
2018-09-26T08:18:01.046Z,-43.1966
2018-09-26T08:19:06.049Z,-42.2877
2018-09-26T08:20:10.683Z,-42.7844
2018-09-26T08:21:15.871Z,-42.5361
2018-09-26T08:22:21.650Z,-42.2877
2018-09-26T08:23:27.209Z,-41.7856
2018-09-26T08:24:32.786Z,-43.6934
2018-09-26T08:25:37.648Z,-42.7844
2018-09-26T08:26:42.839Z,-42.7844
2018-09-26T08:27:48.272Z,-42.0393
2018-09-26T08:28:53.458Z,-43.0328
2018-09-26T08:29:59.452Z,-43.5296
2018-09-26T08:31:04.787Z,-43.2812
2018-09-26T08:32:09.761Z,-43.2812
2018-09-26T08:33:14.626Z,-44.1901
2018-09-26T08:34:20.033Z,-43.2812
2018-09-26T08:35:24.988Z,-44.4385
2018-09-26T08:36:30.926Z,-43.2812
2018-09-26T08:37:36.019Z,-43.2812
2018-09-26T08:38:41.440Z,-43.5296
2018-09-26T08:39:46.699Z,-42.5361
2018-09-26T08:40:51.841Z,-43.0328
2018-09-26T08:41:56.699Z,-43.5296
2018-09-26T08:43:03.010Z,-42.7844
2018-09-26T08:44:07.909Z,-43.5296
2018-09-26T08:45:13.111Z,-43.0328
2018-09-26T08:46:18.607Z,-43.7779
2018-09-26T08:47:23.463Z,-43.2812
2018-09-26T08:48:28.772Z,-43.2812
2018-09-26T08:49:34.027Z,-43.2812
2018-09-26T08:50:39.170Z,-44.5231
2018-09-26T08:51:44.994Z,-44.2747
2018-09-26T08:52:50.150Z,-45.2682
2018-09-26T08:53:56.031Z,-43.7779
2018-09-26T08:55:01.740Z,-43.5296
2018-09-26T08:56:06.933Z,-43.5296
2018-09-26T08:57:11.800Z,-43.0328
2018-09-26T08:58:17.251Z,-43.5296
2018-09-26T08:59:22.150Z,-43.0328
2018-09-26T09:00:42.528Z,-42.6153
2018-09-26T09:01:48.072Z,-43.0328
2018-09-26T09:02:53.371Z,-43.2812
2018-09-26T09:03:59.054Z,-43.0328
2018-09-26T09:05:04.201Z,-43.0328
2018-09-26T09:06:09.636Z,-43.0328
2018-09-26T09:07:15.036Z,-43.1121
2018-09-26T09:08:20.188Z,-43.2812
2018-09-26T09:09:40.235Z,-42.6153
2018-09-26T09:10:45.712Z,-42.8637
2018-09-26T09:11:50.852Z,-41.8702
2018-09-26T09:12:56.665Z,-42.6153
2018-09-26T09:14:01.299Z,-43.2812
2018-09-26T09:15:06.299Z,-43.2812
2018-09-26T09:16:10.996Z,-42.1186
2018-09-26T09:17:16.168Z,-42.8637
2018-09-26T09:18:21.317Z,-43.2812
2018-09-26T09:19:26.652Z,-43.1121
2018-09-26T09:20:31.805Z,-43.2812
2018-09-26T09:21:37.489Z,-42.6153
2018-09-26T09:22:42.914Z,-43.1121
2018-09-26T09:23:47.865Z,-42.6153
2018-09-26T09:24:52.429Z,-43.2812
2018-09-26T09:25:57.685Z,-42.6153
2018-09-26T09:27:02.631Z,-41.6218
2018-09-26T09:28:08.510Z,-41.8702
2018-09-26T09:29:13.419Z,-41.2096
2018-09-26T09:30:18.885Z,-41.8702
2018-09-26T09:31:23.726Z,-41.2096
2018-09-26T09:32:28.722Z,-41.6218
2018-09-26T09:33:34.179Z,-41.8702
2018-09-26T09:34:39.848Z,-40.9612
2018-09-26T09:35:44.248Z,-40.7921
2018-09-26T09:36:49.417Z,-41.6218
2018-09-26T09:37:54.878Z,-41.6218
2018-09-26T09:39:00.035Z,-41.3734
2018-09-26T09:40:05.051Z,-41.8702
2018-09-26T09:41:10.519Z,-41.8702
2018-09-26T09:42:15.672Z,-41.6218
2018-09-26T09:43:20.838Z,-42.3669
2018-09-26T09:44:26.748Z,-41.3734
2018-09-26T09:45:32.570Z,-41.8702
2018-09-26T09:46:37.732Z,-41.6218
2018-09-26T09:47:43.006Z,-42.3669
2018-09-26T09:48:47.927Z,-41.6218
2018-09-26T09:49:53.445Z,-41.6218
2018-09-26T09:50:58.875Z,-41.8702
2018-09-26T09:52:05.051Z,-41.6218
2018-09-26T09:53:09.916Z,-42.3669
2018-09-26T09:54:14.996Z,-42.1186
2018-09-26T09:55:20.470Z,-42.3669
2018-09-26T09:56:25.815Z,-41.6218
2018-09-26T09:57:31.573Z,-41.8702
2018-09-26T09:58:36.791Z,-42.1186
2018-09-26T09:59:42.468Z,-40.7921
2018-09-26T10:00:48.223Z,-42.3669
2018-09-26T10:01:53.366Z,-41.3734
2018-09-26T10:02:59.803Z,-41.3734
2018-09-26T10:04:06.210Z,-41.458
2018-09-26T10:05:11.156Z,-42.1186
2018-09-26T10:06:16.370Z,-42.6153
2018-09-26T10:07:22.049Z,-42.3669
2018-09-26T10:08:27.789Z,-41.8702
2018-09-26T10:09:33.368Z,-42.1186
2018-09-26T10:10:38.553Z,-42.1186
2018-09-26T10:11:43.497Z,-41.8702
2018-09-26T10:12:49.404Z,-42.1186
2018-09-26T10:13:54.903Z,-41.2889
2018-09-26T10:15:00.050Z,-41.7064
2018-09-26T10:16:05.468Z,-41.8702
2018-09-26T10:17:10.345Z,-41.458
2018-09-26T10:18:15.783Z,-42.1186
2018-09-26T10:19:20.667Z,-42.1186
2018-09-26T10:20:26.848Z,-43.1121
2018-09-26T10:21:31.963Z,-42.6153
2018-09-26T10:22:37.430Z,-43.1121
2018-09-26T10:23:42.915Z,-42.8637
2018-09-26T10:24:48.607Z,-42.6153
2018-09-26T10:25:54.191Z,-42.3669
2018-09-26T10:26:59.671Z,-42.1186
2018-09-26T10:28:05.240Z,-42.6153
2018-09-26T10:29:09.844Z,-42.6153
2018-09-26T10:30:15.430Z,-42.6153
2018-09-26T10:31:20.870Z,-42.3669
2018-09-26T10:32:26.454Z,-41.9547
2018-09-26T10:33:31.803Z,-41.9547
2018-09-26T10:34:36.957Z,-41.7064
2018-09-26T10:35:42.433Z,-41.458
2018-09-26T10:37:02.724Z,-41.0405
2018-09-26T10:38:07.944Z,-40.2954
2018-09-26T10:39:13.436Z,-40.5437
2018-09-26T10:40:18.910Z,-40.7921
2018-09-26T10:41:24.049Z,-40.7921
2018-09-26T10:42:44.134Z,-40.047
2018-09-26T10:43:49.548Z,-39.6348
2018-09-26T10:44:54.480Z,-39.3864
2018-09-26T10:45:59.740Z,-40.047
2018-09-26T10:47:04.360Z,-39.7986
2018-09-26T10:48:09.900Z,-38.3876
2018-09-26T10:49:15.396Z,-39.138
2018-09-26T10:50:21.037Z,-39.3864
2018-09-26T10:51:41.752Z,-40.047
2018-09-26T10:52:46.617Z,-39.138
2018-09-26T10:53:51.213Z,-39.3864
2018-09-26T10:54:56.470Z,-38.636
2018-09-26T10:56:01.605Z,-39.6348
2018-09-26T10:57:06.836Z,-40.5437
2018-09-26T10:58:12.402Z,-39.8832
2018-09-26T10:59:17.936Z,-40.047
2018-09-26T11:00:23.078Z,-39.138
2018-09-26T11:01:28.890Z,-38.636
2018-09-26T11:02:34.312Z,-39.3864
2018-09-26T11:03:39.739Z,-38.8844
2018-09-26T11:04:44.631Z,-39.3864
2018-09-26T11:05:49.546Z,-38.636
2018-09-26T11:06:55.002Z,-38.636
2018-09-26T11:08:00.447Z,-38.8844
2018-09-26T11:09:05.354Z,-38.3876
2018-09-26T11:10:10.622Z,-38.3876
2018-09-26T11:11:15.478Z,-38.3876
2018-09-26T11:12:20.644Z,-38.1392
2018-09-26T11:13:25.667Z,-37.4734
2018-09-26T11:14:32.353Z,-36.9766
2018-09-26T11:15:37.747Z,-36.7282
2018-09-26T11:16:43.195Z,-36.7282
2018-09-26T11:17:48.627Z,-36.9766
2018-09-26T11:18:54.615Z,-36.4799
2018-09-26T11:19:59.810Z,-36.4799
2018-09-26T11:21:05.345Z,-36.7282
2018-09-26T11:22:11.600Z,-36.9766
2018-09-26T11:23:17.368Z,-37.225
2018-09-26T11:24:22.525Z,-36.2315
2018-09-26T11:25:28.379Z,-36.4799
2018-09-26T11:26:33.677Z,-36.2315
2018-09-26T11:27:39.339Z,-36.2315
2018-09-26T11:28:44.775Z,-35.814
2018-09-26T11:29:49.663Z,-36.7282
2018-09-26T11:30:55.533Z,-35.9831
2018-09-26T11:32:01.164Z,-35.7347
2018-09-26T11:33:06.684Z,-35.9831
2018-09-26T11:34:12.315Z,-35.7347
2018-09-26T11:35:17.962Z,-35.3172
2018-09-26T11:36:23.115Z,-35.5656
2018-09-26T11:37:28.726Z,-35.5656
2018-09-26T11:38:34.245Z,-35.814
2018-09-26T11:39:39.805Z,-35.5656
2018-09-26T11:40:45.324Z,-35.0689
2018-09-26T11:41:50.758Z,-34.8205
2018-09-26T11:42:56.496Z,-35.3172
2018-09-26T11:44:01.363Z,-35.5656
2018-09-26T11:45:06.546Z,-35.0689
2018-09-26T11:46:10.892Z,-35.3172
2018-09-26T11:47:16.454Z,-35.0689
2018-09-26T11:48:21.700Z,-34.3237
2018-09-26T11:49:27.152Z,-34.8205
2018-09-26T11:50:32.387Z,-34.5721
2018-09-26T11:51:38.238Z,-34.0753
2018-09-26T11:52:43.693Z,-35.0689
2018-09-26T11:53:49.378Z,-34.0753
2018-09-26T11:54:54.872Z,-33.827
2018-09-26T11:56:00.627Z,-35.0689
2018-09-26T11:57:05.556Z,-34.3237
2018-09-26T11:58:11.485Z,-34.5721
2018-09-26T11:59:16.980Z,-34.5721
2018-09-26T12:00:22.143Z,-34.3237
2018-09-26T12:01:42.542Z,-34.3237
2018-09-26T12:02:47.780Z,-34.3237
2018-09-26T12:03:53.740Z,-34.0753
2018-09-26T12:04:58.694Z,-34.0753
2018-09-26T12:06:03.290Z,-34.0753
2018-09-26T12:07:09.308Z,-32.6643
2018-09-26T12:08:14.938Z,-32.9127
2018-09-26T12:09:20.166Z,-33.1611
2018-09-26T12:10:26.565Z,-33.9062
2018-09-26T12:11:31.461Z,-32.6643
2018-09-26T12:12:37.115Z,-33.1611
2018-09-26T12:13:42.369Z,-32.9127
2018-09-26T12:14:47.812Z,-32.416
2018-09-26T12:15:53.812Z,-32.6643
2018-09-26T12:16:58.738Z,-33.1611
2018-09-26T12:18:03.749Z,-32.9127
2018-09-26T12:19:09.158Z,-32.416
2018-09-26T12:20:14.708Z,-32.9127
2018-09-26T12:21:33.427Z,-32.9127
2018-09-26T12:22:38.660Z,-31.9192
2018-09-26T12:23:44.486Z,-32.6643
2018-09-26T12:24:50.382Z,-31.5017
2018-09-26T12:25:55.299Z,-31.9192
2018-09-26T12:27:00.553Z,-31.6708
2018-09-26T12:28:06.053Z,-31.6708
2018-09-26T12:29:10.859Z,-31.2534
2018-09-26T12:30:16.283Z,-31.2534
2018-09-26T12:31:22.006Z,-31.005
2018-09-26T12:32:27.449Z,-30.2546
2018-09-26T12:33:33.097Z,-30.7566
2018-09-26T12:34:38.604Z,-29.7578
2018-09-26T12:35:44.308Z,-29.7578
2018-09-26T12:36:49.730Z,-30.0062
2018-09-26T12:37:54.889Z,-30.2546
2018-09-26T12:39:00.120Z,-30.5082
2018-09-26T12:40:05.670Z,-31.005
2018-09-26T12:41:11.154Z,-30.0062
2018-09-26T12:42:16.724Z,-29.594
2018-09-26T12:43:22.330Z,-29.594
2018-09-26T12:44:27.791Z,-29.594
2018-09-26T12:45:33.514Z,-29.4249
2018-09-26T12:46:38.692Z,-29.1765
2018-09-26T12:47:44.152Z,-29.4249
2018-09-26T12:48:49.584Z,-28.6797
2018-09-26T12:49:55.122Z,-29.594
2018-09-26T12:51:00.312Z,-30.0062
2018-09-26T12:52:05.778Z,-29.594
2018-09-26T12:53:11.357Z,-28.9281